Time;durP1;ratioP1;P1;durP2;ratioP2;P2;SDS_P1;SDS_P2;PMS_P1;PMS_P2;Temp;Humidity;BMP_temperature;BMP_pressure;BME280_temperature;BME280_humidity;BME280_pressure;Samples;Min_cycle;Max_cycle;Signal;HPM_P1;HPM_P2
2023/04/10 00:01:51;;;;;;;;;;;;;;;-140.72;100.00;52796.72;5020205;28;19936;-71
2023/04/10 00:04:19;;;;;;;;;;;;;;;-140.72;100.00;52798.72;5025122;28;19921;-71
2023/04/10 00:06:44;;;;;;;;;;;;;;;-140.72;100.00;52841.34;5026665;28;19928;-71
2023/04/10 00:09:12;;;;;;;;;;;;;;;-140.72;100.00;52855.56;5021913;28;19917;-71
2023/04/10 00:11:37;;;;;;;;;;;;;;;-140.72;100.00;52847.44;5031563;28;20001;-71
2023/04/10 00:14:02;;;;;;;;;;;;;;;-140.72;100.00;52825.13;5039080;28;20354;-71
2023/04/10 00:16:27;;;;;;;;;;;;;;;-140.72;100.00;52788.59;5018546;28;19918;-71
2023/04/10 00:18:52;;;;;;;;;;;;;;;-140.72;100.00;52861.66;5030979;28;19921;-71
2023/04/10 00:21:18;;;;;;;;;;;;;;;-140.72;100.00;52798.72;5066366;27;20000;-71
2023/04/10 00:23:43;;;;;;;;;;;;;;;-140.72;100.00;52835.25;5040560;28;20389;-71
2023/04/10 00:26:09;;;;;;;;;;;;;;;-140.72;100.00;52831.19;5032787;28;19921;-71
2023/04/10 00:28:36;;;;;;;;;;;;;;;-140.72;100.00;52835.25;5038123;28;19917;-71
2023/04/10 00:31:02;;;;;;;;;;;;;;;-140.72;100.00;52819.03;5062111;27;19924;-71
2023/04/10 00:33:27;;;;;;;;;;;;;;;-140.72;100.00;52825.13;5028319;28;20356;-71
2023/04/10 00:35:52;;;;;;;;;;;;;;;-140.72;100.00;52825.13;5016498;28;19917;-71
2023/04/10 00:38:18;;;;;;;;;;;;;;;-140.72;100.00;52821.06;5026712;28;20012;-71
2023/04/10 00:40:43;;;;;;;;;;;;;;;-140.72;100.00;52825.13;5024273;28;20022;-71
2023/04/10 00:43:08;;;;;;;;;;;;;;;-140.72;100.00;52819.03;5034891;28;19940;-71
2023/04/10 00:45:34;;;;;;;;;;;;;;;-140.72;100.00;52845.41;5028741;28;19917;-70
2023/04/10 00:47:59;;;;;;;;;;;;;;;-140.72;100.00;52831.19;5024368;28;20264;-71
2023/04/10 00:50:25;;;;;;;;;;;;;;;-140.72;100.00;52825.13;5029083;28;19921;-71
2023/04/10 00:52:50;;;;;;;;;;;;;;;-140.72;100.00;52843.38;5025200;28;19970;-71
2023/04/10 00:55:16;;;;;;;;;;;;;;;-140.72;100.00;52788.59;5017790;28;20376;-71
2023/04/10 00:57:45;;;;;;;;;;;;;;;-140.72;100.00;52804.81;5014218;28;20275;-71
2023/04/10 01:00:14;;;;;;;;;;;;;;;-140.72;100.00;52853.53;5032805;28;19924;-70
2023/04/10 01:02:40;;;;;;;;;;;;;;;-140.72;100.00;52814.97;5020848;28;19928;-70
2023/04/10 01:05:06;;;;;;;;;;;;;;;-140.72;100.00;52800.75;5028490;28;20430;-71
2023/04/10 01:07:41;;;;;;;;;;;;;;;-140.72;100.00;52845.41;5029976;28;20011;-71
2023/04/10 01:10:12;;;;;;;;;;;;;;;-140.72;100.00;52851.50;5029589;28;19917;-70
2023/04/10 01:13:04;;;;;;;;;;;;;;;-140.72;100.00;52800.75;5021836;28;19917;-71
2023/04/10 01:15:38;;;;;;;;;;;;;;;-140.72;100.00;52827.16;5046644;27;20442;-71
2023/04/10 01:18:05;;;;;;;;;;;;;;;-140.72;100.00;52823.09;5028338;28;20401;-71
2023/04/10 01:20:32;;;;;;;;;;;;;;;-140.72;100.00;52814.97;5029090;28;19917;-70
2023/04/10 01:23:00;;;;;;;;;;;;;;;-140.72;100.00;52855.56;5026992;28;19931;-70
2023/04/10 01:25:30;;;;;;;;;;;;;;;-140.72;100.00;52774.38;5025977;28;20000;-71
2023/04/10 01:28:04;;;;;;;;;;;;;;;-140.72;100.00;52825.13;5028707;28;19917;-71
2023/04/10 01:30:31;;;;;;;;;;;;;;;-140.72;100.00;52825.13;5014906;28;20440;-70
2023/04/10 01:32:58;;;;;;;;;;;;;;;-140.72;100.00;52835.25;5034586;28;19999;-70
2023/04/10 01:35:24;;;;;;;;;;;;;;;-140.72;100.00;52792.66;5030341;28;20379;-70
2023/04/10 01:37:52;;;;;;;;;;;;;;;-140.72;100.00;52823.09;5029941;28;20391;-71
2023/04/10 01:40:18;;;;;;;;;;;;;;;-140.72;100.00;52810.91;5029846;28;19924;-70
2023/04/10 01:42:47;;;;;;;;;;;;;;;-140.72;100.00;52879.91;5031452;28;20341;-71
2023/04/10 01:45:17;;;;;;;;;;;;;;;-140.72;100.00;52877.88;5025614;28;19933;-71
2023/04/10 01:47:42;;;;;;;;;;;;;;;-140.72;100.00;52831.19;5020146;28;19933;-71
2023/04/10 01:50:08;;;;;;;;;;;;;;;-140.72;100.00;52808.88;5026625;28;19964;-71
2023/04/10 01:52:34;;;;;;;;;;;;;;;-140.72;100.00;52859.63;5021952;28;19928;-71
2023/04/10 01:55:01;;;;;;;;;;;;;;;-140.72;100.00;52796.72;5032424;28;19921;-71
2023/04/10 01:57:29;;;;;;;;;;;;;;;-140.72;100.00;52861.66;5025318;28;20436;-70
2023/04/10 01:59:54;;;;;;;;;;;;;;;-140.72;100.00;52835.25;5027130;28;19963;-71
2023/04/10 02:02:22;;;;;;;;;;;;;;;-140.72;100.00;52837.28;5029238;28;19921;-71
2023/04/10 02:04:50;;;;;;;;;;;;;;;-140.72;100.00;52873.81;5029703;28;20015;-71
2023/04/10 02:07:21;;;;;;;;;;;;;;;-140.72;100.00;52821.06;5029044;28;20366;-71
2023/04/10 02:09:53;;;;;;;;;;;;;;;-140.72;100.00;52821.06;5020682;28;19958;-71
2023/04/10 02:12:24;;;;;;;;;;;;;;;-140.72;100.00;52792.66;5020873;28;19921;-70
2023/04/10 02:14:50;;;;;;;;;;;;;;;-140.72;100.00;52825.13;5028531;28;19929;-71
2023/04/10 02:17:19;;;;;;;;;;;;;;;-140.72;100.00;52825.13;5029245;28;19921;-71
2023/04/10 02:19:45;;;;;;;;;;;;;;;-140.72;100.00;52833.22;5086147;27;19919;-71
2023/04/10 02:22:10;;;;;;;;;;;;;;;-140.72;100.00;52821.06;5042786;27;19917;-70
2023/04/10 02:24:36;;;;;;;;;;;;;;;-140.72;100.00;52833.22;5026434;28;19917;-70
2023/04/10 02:27:01;;;;;;;;;;;;;;;-140.72;100.00;52831.19;5028454;28;19927;-70
2023/04/10 02:29:26;;;;;;;;;;;;;;;-140.72;100.00;52827.16;5029192;28;19924;-71
2023/04/10 02:31:52;;;;;;;;;;;;;;;-140.72;100.00;52821.06;5033379;28;19921;-71
2023/04/10 02:34:17;;;;;;;;;;;;;;;-140.72;100.00;52794.69;5030365;28;19925;-71
2023/04/10 02:36:42;;;;;;;;;;;;;;;-140.72;100.00;52841.34;5036599;28;19916;-71
2023/04/10 02:39:07;;;;;;;;;;;;;;;-140.72;100.00;52873.81;5032751;28;19924;-71
2023/04/10 02:41:33;;;;;;;;;;;;;;;-140.72;100.00;52819.03;5029085;28;19967;-71
2023/04/10 02:43:58;;;;;;;;;;;;;;;-140.72;100.00;52833.22;5030380;28;20279;-71
2023/04/10 02:46:24;;;;;;;;;;;;;;;-140.72;100.00;52825.13;5030175;28;20389;-71
2023/04/10 02:48:51;;;;;;;;;;;;;;;-140.72;100.00;52817.00;5028522;28;19924;-71
2023/04/10 02:51:16;;;;;;;;;;;;;;;-140.72;100.00;52814.97;5041435;28;19942;-71
2023/04/10 02:53:41;;;;;;;;;;;;;;;-140.72;100.00;52873.81;5031249;28;19925;-71
2023/04/10 02:56:07;;;;;;;;;;;;;;;-140.72;100.00;52817.00;5021565;28;19929;-71
2023/04/10 02:58:33;;;;;;;;;;;;;;;-140.72;100.00;52855.56;5032431;28;20435;-71
2023/04/10 03:00:58;;;;;;;;;;;;;;;-140.72;100.00;52812.94;5039920;28;19917;-71
2023/04/10 03:03:24;;;;;;;;;;;;;;;-140.72;100.00;52812.94;5028480;28;19921;-70
2023/04/10 03:05:49;;;;;;;;;;;;;;;-140.72;100.00;52806.84;5029049;28;20391;-71
2023/04/10 03:08:17;;;;;;;;;;;;;;;-140.72;100.00;52812.94;5032757;28;20375;-71
2023/04/10 03:10:43;;;;;;;;;;;;;;;-140.72;100.00;52843.38;5027687;28;19922;-71
2023/04/10 03:13:08;;;;;;;;;;;;;;;-140.72;100.00;52835.25;5044553;28;19928;-70
2023/04/10 03:15:34;;;;;;;;;;;;;;;-140.72;100.00;52827.16;5032204;28;20274;-71
2023/04/10 03:17:59;;;;;;;;;;;;;;;-140.72;100.00;52845.41;5031255;28;19954;-71
2023/04/10 03:20:24;;;;;;;;;;;;;;;-140.72;100.00;52823.09;5032058;28;20344;-71
2023/04/10 03:22:50;;;;;;;;;;;;;;;-140.72;100.00;52855.56;5026570;28;20011;-71
2023/04/10 03:25:15;;;;;;;;;;;;;;;-140.72;100.00;52825.13;5036866;28;19960;-70
2023/04/10 03:27:41;;;;;;;;;;;;;;;-140.72;100.00;52843.38;5030634;28;19964;-71
2023/04/10 03:30:06;;;;;;;;;;;;;;;-140.72;100.00;52825.13;5028315;28;20398;-71
2023/04/10 03:32:31;;;;;;;;;;;;;;;-140.72;100.00;52806.84;5030068;28;19921;-70
2023/04/10 03:34:57;;;;;;;;;;;;;;;-140.72;100.00;52796.72;5030159;28;19921;-71
2023/04/10 03:37:23;;;;;;;;;;;;;;;-140.72;100.00;52810.91;5037526;28;19961;-71
2023/04/10 03:39:48;;;;;;;;;;;;;;;-140.72;100.00;52851.50;5044855;28;19924;-70
2023/04/10 03:42:13;;;;;;;;;;;;;;;-140.72;100.00;52835.25;5017429;28;19922;-70
2023/04/10 03:44:38;;;;;;;;;;;;;;;-140.72;100.00;52829.19;5016302;28;19962;-70
2023/04/10 03:47:03;;;;;;;;;;;;;;;-140.72;100.00;52829.19;5032513;28;19925;-70
2023/04/10 03:49:29;;;;;;;;;;;;;;;-140.72;100.00;52883.97;5031512;28;19969;-71
2023/04/10 03:51:54;;;;;;;;;;;;;;;-140.72;100.00;52837.28;5030027;28;19943;-70
2023/04/10 03:54:20;;;;;;;;;;;;;;;-140.72;100.00;52819.03;5023304;28;19925;-70
2023/04/10 03:56:45;;;;;;;;;;;;;;;-140.72;100.00;52804.81;5026101;28;19957;-71
2023/04/10 03:59:10;;;;;;;;;;;;;;;-140.72;100.00;52855.56;5028285;28;19925;-70
2023/04/10 04:01:35;;;;;;;;;;;;;;;-140.72;100.00;52823.09;5029232;28;19927;-70
2023/04/10 04:04:01;;;;;;;;;;;;;;;-140.72;100.00;52810.91;5076426;27;19928;-71
2023/04/10 04:06:26;;;;;;;;;;;;;;;-140.72;100.00;52788.59;5031415;28;19917;-71
2023/04/10 04:08:51;;;;;;;;;;;;;;;-140.72;100.00;52812.94;5033463;28;19929;-71
2023/04/10 04:11:16;;;;;;;;;;;;;;;-140.72;100.00;52821.06;5030726;28;20283;-70
2023/04/10 04:13:42;;;;;;;;;;;;;;;-140.72;100.00;52796.72;5019300;28;19925;-70
2023/04/10 04:16:07;;;;;;;;;;;;;;;-140.72;100.00;52841.34;5027229;28;19921;-71
2023/04/10 04:18:33;;;;;;;;;;;;;;;-140.72;100.00;52839.31;5017046;28;19970;-70
2023/04/10 04:20:58;;;;;;;;;;;;;;;-140.72;100.00;52800.75;5031272;28;20397;-71
2023/04/10 04:23:23;;;;;;;;;;;;;;;-140.72;100.00;52821.06;5032684;28;19921;-71
2023/04/10 04:25:51;;;;;;;;;;;;;;;-140.72;100.00;52808.88;5019981;28;19917;-70
2023/04/10 04:28:16;;;;;;;;;;;;;;;-140.72;100.00;52792.66;5031355;28;19921;-70
2023/04/10 04:30:42;;;;;;;;;;;;;;;-140.72;100.00;52786.56;5031578;28;20012;-71
2023/04/10 04:33:07;;;;;;;;;;;;;;;-140.72;100.00;52819.03;5030847;28;19977;-70
2023/04/10 04:35:32;;;;;;;;;;;;;;;-140.72;100.00;52792.66;5023709;28;19987;-71
2023/04/10 04:37:57;;;;;;;;;;;;;;;-140.72;100.00;52800.75;5033526;28;20385;-71
2023/04/10 04:40:22;;;;;;;;;;;;;;;-140.72;100.00;52782.50;5041304;28;19941;-71
2023/04/10 04:42:48;;;;;;;;;;;;;;;-140.72;100.00;52776.41;5041352;28;21175;-71
2023/04/10 04:45:13;;;;;;;;;;;;;;;-140.72;100.00;52792.66;5036764;28;20298;-71
2023/04/10 04:47:38;;;;;;;;;;;;;;;-140.72;100.00;52792.66;5026744;28;19935;-71
2023/04/10 04:50:04;;;;;;;;;;;;;;;-140.72;100.00;52778.44;5031957;28;20012;-71
2023/04/10 04:52:29;;;;;;;;;;;;;;;-140.72;100.00;52800.75;5030884;28;19978;-71
2023/04/10 04:54:54;;;;;;;;;;;;;;;-140.72;100.00;52802.78;5030831;28;19918;-71
2023/04/10 04:57:20;;;;;;;;;;;;;;;-140.72;100.00;52768.28;5030111;28;19928;-71
2023/04/10 04:59:45;;;;;;;;;;;;;;;-140.72;100.00;52796.72;5030768;28;19923;-71
2023/04/10 05:02:10;;;;;;;;;;;;;;;-140.72;100.00;52827.16;5028704;28;19940;-71
2023/04/10 05:04:35;;;;;;;;;;;;;;;-140.72;100.00;52800.75;5030653;28;19970;-71
2023/04/10 05:07:01;;;;;;;;;;;;;;;-140.72;100.00;52841.34;5030474;28;19925;-71
2023/04/10 05:09:26;;;;;;;;;;;;;;;-140.72;100.00;52764.25;5032829;28;20418;-71
2023/04/10 05:11:53;;;;;;;;;;;;;;;-140.72;100.00;52788.59;5025263;28;20333;-71
2023/04/10 05:14:19;;;;;;;;;;;;;;;-140.72;100.00;52804.81;5018072;28;19921;-76
2023/04/10 05:16:44;;;;;;;;;;;;;;;-140.72;100.00;52778.44;5024261;28;20356;-70
2023/04/10 05:19:10;;;;;;;;;;;;;;;-140.72;100.00;52784.53;5023876;28;20058;-71
2023/04/10 05:21:36;;;;;;;;;;;;;;;-140.72;100.00;52796.72;5028747;28;19917;-71
2023/04/10 05:24:01;;;;;;;;;;;;;;;-140.72;100.00;52796.72;5025876;28;19957;-71
2023/04/10 05:26:27;;;;;;;;;;;;;;;-140.72;100.00;52833.22;5028177;28;19977;-71
2023/04/10 05:28:57;;;;;;;;;;;;;;;-140.72;100.00;52774.38;5030156;28;19917;-73
2023/04/10 05:31:24;;;;;;;;;;;;;;;-140.72;100.00;52823.09;5031222;28;19921;-71
2023/04/10 05:33:50;;;;;;;;;;;;;;;-140.72;100.00;52804.81;5025378;28;19921;-70
2023/04/10 05:36:17;;;;;;;;;;;;;;;-140.72;100.00;52841.34;5031227;28;20017;-71
2023/04/10 05:38:42;;;;;;;;;;;;;;;-140.72;100.00;52788.59;5030286;28;20016;-71
2023/04/10 05:41:07;;;;;;;;;;;;;;;-140.72;100.00;52810.91;5025684;28;20312;-71
2023/04/10 05:43:32;;;;;;;;;;;;;;;-140.72;100.00;52833.22;5023106;28;19944;-70
2023/04/10 05:45:58;;;;;;;;;;;;;;;-140.72;100.00;52782.50;5025902;28;19922;-70
2023/04/10 05:48:24;;;;;;;;;;;;;;;-140.72;100.00;52821.06;5029995;28;20040;-70
2023/04/10 05:50:51;;;;;;;;;;;;;;;-140.72;100.00;52804.81;5029850;28;19917;-70
2023/04/10 05:53:18;;;;;;;;;;;;;;;-140.72;100.00;52806.84;5053672;27;19946;-70
2023/04/10 05:55:43;;;;;;;;;;;;;;;-140.72;100.00;52796.72;5024366;28;20000;-70
2023/04/10 05:58:08;;;;;;;;;;;;;;;-140.72;100.00;52784.53;5028553;28;20338;-71
2023/04/10 06:00:33;;;;;;;;;;;;;;;-140.72;100.00;52823.09;5025937;28;19917;-70
2023/04/10 06:02:59;;;;;;;;;;;;;;;-140.72;100.00;52827.16;5023171;28;19922;-71
2023/04/10 06:05:24;;;;;;;;;;;;;;;-140.72;100.00;52806.84;5030138;28;20035;-71
2023/04/10 06:07:50;;;;;;;;;;;;;;;-140.72;100.00;52804.81;5032865;28;20420;-71
2023/04/10 06:10:15;;;;;;;;;;;;;;;-140.72;100.00;52780.47;5024742;28;19918;-72
2023/04/10 06:12:41;;;;;;;;;;;;;;;-140.72;100.00;52768.28;5024383;28;19921;-71
2023/04/10 06:15:06;;;;;;;;;;;;;;;-140.72;100.00;52821.06;5029138;28;20383;-71
2023/04/10 06:17:31;;;;;;;;;;;;;;;-140.72;100.00;52802.78;5030585;28;19957;-70
2023/04/10 06:19:59;;;;;;;;;;;;;;;-140.72;100.00;52766.25;5030021;27;19921;-72
2023/04/10 06:22:25;;;;;;;;;;;;;;;-140.72;100.00;52768.28;5024405;28;19922;-71
2023/04/10 06:24:50;;;;;;;;;;;;;;;-140.72;100.00;52800.75;5029080;28;20010;-73
2023/04/10 06:27:16;;;;;;;;;;;;;;;-140.72;100.00;52847.44;5028394;28;19922;-70
2023/04/10 06:29:41;;;;;;;;;;;;;;;-140.72;100.00;52780.47;5018913;28;19922;-71
2023/04/10 06:32:06;;;;;;;;;;;;;;;-140.72;100.00;52760.19;5024064;28;20009;-73
2023/04/10 06:34:31;;;;;;;;;;;;;;;-140.72;100.00;52768.28;5030802;28;19925;-72
2023/04/10 06:36:57;;;;;;;;;;;;;;;-140.72;100.00;52784.53;5026899;28;19925;-72
2023/04/10 06:39:22;;;;;;;;;;;;;;;-140.72;100.00;52766.25;5028840;28;19922;-72
2023/04/10 06:41:47;;;;;;;;;;;;;;;-140.72;100.00;52760.19;5025663;28;19922;-72
2023/04/10 06:44:12;;;;;;;;;;;;;;;-140.72;100.00;52776.41;5019665;28;19921;-72
2023/04/10 06:46:38;;;;;;;;;;;;;;;-140.72;100.00;52760.19;5020627;28;19918;-72
2023/04/10 06:49:03;;;;;;;;;;;;;;;-140.72;100.00;52790.63;5024440;28;19995;-71
2023/04/10 06:51:28;;;;;;;;;;;;;;;-140.72;100.00;52762.22;5017066;28;20362;-72
2023/04/10 06:53:53;;;;;;;;;;;;;;;-140.72;100.00;52737.84;5023687;28;20372;-71
2023/04/10 06:56:19;;;;;;;;;;;;;;;-140.72;100.00;52764.25;5019036;28;20015;-72
2023/04/10 06:58:44;;;;;;;;;;;;;;;-140.72;100.00;52808.88;5015679;28;19989;-72
2023/04/10 07:01:12;;;;;;;;;;;;;;;-140.72;100.00;52754.09;5015506;28;19987;-73
2023/04/10 07:03:38;;;;;;;;;;;;;;;-140.72;100.00;52768.28;5028072;28;19921;-72
2023/04/10 07:06:36;;;;;;;;;;;;;;;-140.72;100.00;52770.31;5021225;28;19918;-71
2023/04/10 07:09:01;;;;;;;;;;;;;;;-140.72;100.00;52790.63;5013637;28;19936;-72
2023/04/10 07:11:26;;;;;;;;;;;;;;;-140.72;100.00;52764.25;5021279;28;19921;-75
2023/04/10 07:13:56;;;;;;;;;;;;;;;-140.72;100.00;52750.03;5019770;28;19921;-71
2023/04/10 07:16:22;;;;;;;;;;;;;;;-140.72;100.00;52766.25;5021784;28;19929;-71
2023/04/10 07:18:47;;;;;;;;;;;;;;;-140.72;100.00;52784.53;5019206;28;20053;-71
2023/04/10 07:21:12;;;;;;;;;;;;;;;-140.72;100.00;52758.16;5020363;28;19925;-71
2023/04/10 07:23:37;;;;;;;;;;;;;;;-140.72;100.00;52754.09;5025241;28;19921;-71
2023/04/10 07:26:03;;;;;;;;;;;;;;;-140.72;100.00;52737.84;5035123;28;20012;-71
2023/04/10 07:31:36;;;;;;;;;;;;;;;-140.72;100.00;52756.13;5026339;28;19965;-71
2023/04/10 07:34:01;;;;;;;;;;;;;;;-140.72;100.00;52792.66;5029416;28;19957;-71
2023/04/10 07:36:27;;;;;;;;;;;;;;;-140.72;100.00;52743.94;5028872;28;20007;-72
2023/04/10 07:38:52;;;;;;;;;;;;;;;-140.72;100.00;52766.25;5030694;28;19922;-72
2023/04/10 07:41:18;;;;;;;;;;;;;;;-140.72;100.00;52731.75;5027929;28;19971;-71
2023/04/10 07:43:43;;;;;;;;;;;;;;;-140.72;100.00;52782.50;5025522;28;19921;-72
2023/04/10 07:46:08;;;;;;;;;;;;;;;-140.72;100.00;52735.81;5033212;28;20347;-71
2023/04/10 07:48:34;;;;;;;;;;;;;;;-140.72;100.00;52721.63;5025963;28;20271;-71
2023/04/10 07:50:59;;;;;;;;;;;;;;;-140.72;100.00;52735.81;5023788;28;20015;-71
2023/04/10 07:53:24;;;;;;;;;;;;;;;-140.72;99.26;52713.50;5020812;28;20385;-73
2023/04/10 07:55:50;;;;;;;;;;;;;;;-140.72;91.46;52741.91;5022884;28;20430;-71
2023/04/10 07:58:15;;;;;;;;;;;;;;;-140.72;76.78;52699.31;5025639;28;19927;-71
2023/04/10 08:00:40;;;;;;;;;;;;;;;-140.72;73.18;52739.88;5023489;28;20012;-72
2023/04/10 08:03:06;;;;;;;;;;;;;;;-140.72;77.77;52739.88;5024929;28;19929;-72
2023/04/10 08:05:31;;;;;;;;;;;;;;;-140.72;74.21;52745.97;5023111;27;20016;-74
2023/04/10 08:07:56;;;;;;;;;;;;;;;-140.72;82.14;52741.91;5020684;28;19971;-71
2023/04/10 08:10:21;;;;;;;;;;;;;;;-140.72;82.94;52733.78;5020800;28;20004;-71
2023/04/10 08:12:47;;;;;;;;;;;;;;;-140.72;78.03;52721.63;5025917;28;21472;-71
2023/04/10 08:15:12;;;;;;;;;;;;;;;-140.72;87.57;52725.69;5039216;27;19925;-71
2023/04/10 08:17:37;;;;;;;;;;;;;;;-140.72;82.28;52735.81;5025022;28;19928;-71
2023/04/10 08:20:03;;;;;;;;;;;;;;;-140.72;77.57;52717.56;5023832;28;19921;-70
2023/04/10 08:22:29;;;;;;;;;;;;;;;-140.72;79.09;52727.72;5025136;28;19921;-72
2023/04/10 08:24:54;;;;;;;;;;;;;;;-140.72;84.54;52693.22;5024320;28;19921;-74
2023/04/10 08:27:19;;;;;;;;;;;;;;;-140.72;78.67;52735.81;5025331;28;19936;-71
2023/04/10 08:29:45;;;;;;;;;;;;;;;-140.72;76.11;52711.47;5023054;28;20272;-72
2023/04/10 08:32:10;;;;;;;;;;;;;;;-140.72;68.65;52713.50;5024819;28;19925;-71
2023/04/10 08:34:35;;;;;;;;;;;;;;;-140.72;64.95;52737.84;5023552;28;19921;-71
2023/04/10 08:37:04;;;;;;;;;;;;;;;-140.72;68.27;52705.38;5024911;28;19932;-72
2023/04/10 08:39:29;;;;;;;;;;;;;;;-140.72;71.96;52695.25;5024330;28;19978;-72
2023/04/10 08:41:54;;;;;;;;;;;;;;;-140.72;61.05;52695.25;5022913;28;20359;-72
2023/04/10 08:44:20;;;;;;;;;;;;;;;-140.72;67.95;52695.25;5023451;28;19921;-72
2023/04/10 08:46:45;;;;;;;;;;;;;;;-140.72;58.67;52691.19;5025806;28;19921;-75
2023/04/10 08:49:31;;;;;;;;;;;;;;;-140.72;51.16;52679.00;5022986;28;19925;-71
2023/04/10 08:51:57;;;;;;;;;;;;;;;-140.72;47.06;52685.09;5021798;28;20015;-71
2023/04/10 08:54:32;;;;;;;;;;;;;;;-140.72;50.83;52674.94;5041232;27;19980;-71
2023/04/10 08:57:00;;;;;;;;;;;;;;;-140.72;40.25;52670.88;5021578;28;19925;-72
2023/04/10 08:59:27;;;;;;;;;;;;;;;-140.72;26.50;52715.53;5024846;28;19966;-71
2023/04/10 09:01:52;;;;;;;;;;;;;;;-140.72;20.02;52670.88;5024528;28;19922;-71
2023/04/10 09:04:18;;;;;;;;;;;;;;;-140.72;13.08;52658.72;5023697;28;19921;-73
2023/04/10 09:06:43;;;;;;;;;;;;;;;-140.72;23.71;52679.00;5022115;28;19959;-71
2023/04/10 09:09:08;;;;;;;;;;;;;;;-140.72;22.94;52681.03;5027046;27;19937;-71
2023/04/10 09:11:55;;;;;;;;;;;;;;;-140.72;22.68;52674.94;5022468;28;20363;-71
2023/04/10 09:14:21;;;;;;;;;;;;;;;-140.72;15.02;52674.94;5024196;28;20367;-75
2023/04/10 09:16:47;;;;;;;;;;;;;;;-140.72;30.73;52666.84;5019065;27;19921;-72
2023/04/10 09:19:12;;;;;;;;;;;;;;;-140.72;13.93;52685.09;5040765;27;19929;-72
2023/04/10 09:21:37;;;;;;;;;;;;;;;-140.72;17.49;52681.03;5022242;28;20019;-72
2023/04/10 09:24:03;;;;;;;;;;;;;;;-140.72;8.58;52654.66;5023702;28;20294;-73
2023/04/10 09:26:29;;;;;;;;;;;;;;;-140.72;13.13;52640.44;5024997;28;19921;-71
2023/04/10 09:28:56;;;;;;;;;;;;;;;-140.72;5.60;52650.59;5024278;28;20020;-71
2023/04/10 09:31:32;;;;;;;;;;;;;;;-140.72;0.00;52705.38;5020321;28;20037;-72
2023/04/10 09:34:11;;;;;;;;;;;;;;;-140.72;0.00;52709.44;5024930;28;19917;-71
2023/04/10 09:36:36;;;;;;;;;;;;;;;-140.72;0.00;52666.84;5022326;28;19936;-70
2023/04/10 09:39:03;;;;;;;;;;;;;;;-140.72;0.34;52725.69;5025673;28;20368;-71
2023/04/10 09:41:28;;;;;;;;;;;;;;;-140.72;0.00;52679.00;5019953;28;19921;-71
2023/04/10 09:44:06;;;;;;;;;;;;;;;-140.72;0.00;52662.78;5025887;28;19931;-71
2023/04/10 09:46:32;;;;;;;;;;;;;;;-140.72;0.00;52674.94;5025468;28;19929;-71
2023/04/10 09:48:58;;;;;;;;;;;;;;;-140.72;0.00;52693.22;5024722;28;19921;-71
2023/04/10 09:51:29;;;;;;;;;;;;;;;-140.72;1.21;52679.00;5021905;28;19949;-71
2023/04/10 09:53:54;;;;;;;;;;;;;;;-140.72;8.30;52664.81;5022330;28;19974;-73
2023/04/10 09:56:20;;;;;;;;;;;;;;;-140.72;0.00;52622.19;5024581;28;20378;-71
2023/04/10 09:58:46;;;;;;;;;;;;;;;-140.72;0.00;52632.34;5024281;28;19928;-71
2023/04/10 10:01:11;;;;;;;;;;;;;;;-140.72;0.00;52601.91;5038657;27;19929;-70
2023/04/10 10:03:37;;;;;;;;;;;;;;;-140.72;0.00;52658.72;5018033;28;20284;-71
2023/04/10 10:06:03;;;;;;;;;;;;;;;-140.72;0.00;52585.66;5022972;28;20016;-71
2023/04/10 10:08:30;;;;;;;;;;;;;;;-140.72;0.00;52636.38;5023732;28;19921;-71
2023/04/10 10:10:57;;;;;;;;;;;;;;;-140.72;0.00;52642.47;5023243;28;19965;-71
2023/04/10 10:13:29;;;;;;;;;;;;;;;-140.72;0.00;52646.53;5022360;28;19974;-71
2023/04/10 10:16:07;;;;;;;;;;;;;;;-140.72;0.00;52593.78;5019738;28;19925;-73
2023/04/10 10:18:32;;;;;;;;;;;;;;;-140.72;0.00;52593.78;5020805;28;19921;-71
2023/04/10 10:20:58;;;;;;;;;;;;;;;-140.72;0.00;52585.66;5023177;28;20253;-70
2023/04/10 10:23:24;;;;;;;;;;;;;;;-140.72;0.00;52587.69;5027219;28;19926;-70
2023/04/10 10:25:50;;;;;;;;;;;;;;;-140.72;0.00;52541.03;5021001;28;19921;-70
2023/04/10 10:28:16;;;;;;;;;;;;;;;-140.72;0.00;52571.47;5019458;28;19921;-71
2023/04/10 10:30:43;;;;;;;;;;;;;;;-140.72;0.00;52573.50;5024061;28;19924;-71
2023/04/10 10:33:09;;;;;;;;;;;;;;;-140.72;0.00;52585.66;5024065;28;19987;-72
2023/04/10 10:35:35;;;;;;;;;;;;;;;-140.72;0.00;52599.88;5023529;28;19948;-70
2023/04/10 10:38:02;;;;;;;;;;;;;;;-140.72;0.00;52585.66;5023697;28;19921;-72
2023/04/10 10:40:46;;;;;;;;;;;;;;;-140.72;0.00;52541.03;5025574;28;19981;-75
2023/04/10 10:43:15;;;;;;;;;;;;;;;-140.72;0.00;52526.81;5020205;28;20015;-71
2023/04/10 10:45:59;;;;;;;;;;;;;;;-140.72;0.00;52536.97;5018213;28;19936;-72
2023/04/10 10:48:25;;;;;;;;;;;;;;;-140.72;0.00;52510.59;5021859;28;20347;-71
2023/04/10 10:50:55;;;;;;;;;;;;;;;-140.72;0.00;52512.59;5022668;28;20015;-72
2023/04/10 10:53:31;;;;;;;;;;;;;;;-140.72;0.00;52470.00;5023688;28;19969;-71
2023/04/10 10:55:56;;;;;;;;;;;;;;;-140.72;0.00;52549.13;5027473;28;20016;-71
2023/04/10 10:58:41;;;;;;;;;;;;;;;-140.72;0.00;52500.44;5024579;28;20355;-71
2023/04/10 11:01:07;;;;;;;;;;;;;;;-140.72;0.00;52508.56;5022041;28;20036;-72
2023/04/10 11:03:32;;;;;;;;;;;;;;;-140.72;0.00;52506.53;5018864;28;20019;-73
2023/04/10 11:06:01;;;;;;;;;;;;;;;-140.72;0.00;52496.38;5022716;28;19938;-70
2023/04/10 11:08:32;;;;;;;;;;;;;;;-140.72;0.00;52478.13;5019611;28;19922;-71
2023/04/10 11:10:57;;;;;;;;;;;;;;;-140.72;0.00;52478.13;5024916;28;19921;-71
2023/04/10 11:13:23;;;;;;;;;;;;;;;-140.72;0.00;52516.66;5020786;28;19925;-72
2023/04/10 11:15:50;;;;;;;;;;;;;;;-140.72;0.00;52524.78;5022130;28;19921;-71
2023/04/10 11:18:15;;;;;;;;;;;;;;;-140.72;0.00;52522.75;5025075;28;19921;-70
2023/04/10 11:21:00;;;;;;;;;;;;;;;-140.72;0.00;52559.28;5017856;28;19929;-70
2023/04/10 11:23:25;;;;;;;;;;;;;;;-140.72;0.00;52575.50;5031893;28;20440;-71
2023/04/10 11:25:51;;;;;;;;;;;;;;;-140.72;0.00;52591.75;5023718;28;19921;-71
2023/04/10 11:28:32;;;;;;;;;;;;;;;-140.72;0.00;52516.66;5023381;28;20335;-70
2023/04/10 11:31:13;;;;;;;;;;;;;;;-140.72;0.00;52569.44;5024588;28;19971;-70
2023/04/10 11:33:39;;;;;;;;;;;;;;;-140.72;0.00;52573.50;5024834;28;20257;-73
2023/04/10 11:36:05;;;;;;;;;;;;;;;-140.72;0.00;52569.44;5021772;28;20299;-72
2023/04/10 11:38:31;;;;;;;;;;;;;;;-140.72;0.00;52599.88;5037770;27;19921;-71
2023/04/10 11:40:58;;;;;;;;;;;;;;;-140.72;0.00;52561.31;5040630;27;19926;-71
2023/04/10 11:43:23;;;;;;;;;;;;;;;-140.72;0.00;52553.19;5037188;27;19966;-70
2023/04/10 11:45:48;;;;;;;;;;;;;;;-140.72;0.00;52605.94;5024576;28;20329;-71
2023/04/10 11:48:15;;;;;;;;;;;;;;;-140.72;0.00;52614.06;5030053;28;20337;-70
2023/04/10 11:50:41;;;;;;;;;;;;;;;-140.72;0.00;52589.72;5024737;28;19964;-71
2023/04/10 11:53:18;;;;;;;;;;;;;;;-140.72;0.00;52589.72;5023884;28;19965;-71
2023/04/10 11:55:44;;;;;;;;;;;;;;;-140.72;0.00;52601.91;5025363;28;19927;-71
2023/04/10 11:58:22;;;;;;;;;;;;;;;-140.72;0.00;52610.00;5030257;28;20005;-71
2023/04/10 12:00:58;;;;;;;;;;;;;;;-140.72;0.00;52573.50;5026340;28;19925;-71
2023/04/10 12:03:33;;;;;;;;;;;;;;;-140.72;0.00;52644.50;5018542;28;20422;-70
2023/04/10 12:05:58;;;;;;;;;;;;;;;-140.72;0.00;52628.28;5021558;28;20651;-70
2023/04/10 12:08:33;;;;;;;;;;;;;;;-140.72;0.00;52605.94;5023144;28;19927;-70
2023/04/10 12:10:59;;;;;;;;;;;;;;;-140.72;0.00;52605.94;5024014;28;20007;-71
2023/04/10 12:13:25;;;;;;;;;;;;;;;-140.72;0.00;52622.19;5023356;28;19932;-70
2023/04/10 12:15:51;;;;;;;;;;;;;;;-140.72;0.00;52577.53;5026739;28;19921;-70
2023/04/10 12:18:16;;;;;;;;;;;;;;;-140.72;0.00;52614.06;5025129;28;20328;-71
2023/04/10 12:20:42;;;;;;;;;;;;;;;-140.72;0.00;52632.34;5026279;28;19973;-71
2023/04/10 12:23:08;;;;;;;;;;;;;;;-140.72;0.00;52616.09;5026249;28;19976;-71
2023/04/10 12:25:34;;;;;;;;;;;;;;;-140.72;0.00;52614.06;5027519;28;20402;-71